Time;durP1;ratioP1;P1;durP2;ratioP2;P2;SDS_P1;SDS_P2;PMS_P1;PMS_P2;Temp;Humidity;BMP_temperature;BMP_pressure;BME280_temperature;BME280_humidity;BME280_pressure;Samples;Min_cycle;Max_cycle;Signal;HPM_P1;HPM_P2
2023/06/08 00:00:50;;;;;;;33.13;23.52;;;18.10;99.90;;;;;;5060084;28;20500;-76
2023/06/08 00:03:18;;;;;;;30.98;22.00;;;18.10;99.90;;;;;;5067344;28;20492;-76
2023/06/08 00:05:49;;;;;;;61.10;22.15;;;18.10;99.90;;;;;;5065919;28;20516;-76
2023/06/08 00:08:16;;;;;;;41.53;22.02;;;18.10;99.90;;;;;;5065017;28;20055;-76
2023/06/08 00:10:44;;;;;;;52.33;22.65;;;18.10;99.90;;;;;;5067526;28;20053;-78
2023/06/08 00:13:12;;;;;;;35.10;23.63;;;18.10;99.90;;;;;;5068285;28;20044;-76
2023/06/08 00:15:39;;;;;;;31.08;22.15;;;18.10;99.90;;;;;;5067933;28;20055;-76
2023/06/08 00:18:09;;;;;;;36.28;22.10;;;18.10;99.90;;;;;;5066272;28;20056;-77
2023/06/08 00:20:36;;;;;;;42.13;21.52;;;18.10;99.90;;;;;;5065657;28;20113;-77
2023/06/08 00:23:04;;;;;;;35.70;23.65;;;18.10;99.90;;;;;;5067258;28;20041;-78
2023/06/08 00:25:32;;;;;;;34.85;24.00;;;18.10;99.90;;;;;;5067718;28;20481;-76
2023/06/08 00:27:59;;;;;;;37.63;22.60;;;18.10;99.90;;;;;;5066988;28;20431;-77
2023/06/08 00:30:27;;;;;;;33.70;22.73;;;18.10;99.90;;;;;;5048586;28;20043;-75
2023/06/08 00:32:55;;;;;;;33.72;22.98;;;18.00;99.90;;;;;;5062433;28;20045;-76
2023/06/08 00:35:24;;;;;;;33.80;22.55;;;18.00;99.90;;;;;;5048872;28;20060;-75
2023/06/08 00:37:53;;;;;;;28.27;21.67;;;18.00;99.90;;;;;;5065256;28;20156;-76
2023/06/08 00:40:20;;;;;;;31.02;21.67;;;18.00;99.90;;;;;;5069166;28;20040;-77
2023/06/08 00:42:47;;;;;;;25.35;19.45;;;18.00;99.90;;;;;;5073133;28;20041;-76
2023/06/08 00:45:15;;;;;;;26.65;17.73;;;18.00;99.90;;;;;;5071025;28;20044;-76
2023/06/08 00:47:42;;;;;;;25.98;17.13;;;17.90;99.90;;;;;;5066987;28;20075;-76
2023/06/08 00:50:11;;;;;;;29.30;18.73;;;17.90;99.90;;;;;;5065629;28;20511;-77
2023/06/08 00:52:41;;;;;;;25.13;16.55;;;17.90;99.90;;;;;;5066604;28;20047;-74
2023/06/08 00:55:09;;;;;;;28.83;15.68;;;17.90;99.90;;;;;;5071131;28;20051;-76
2023/06/08 00:57:39;;;;;;;29.73;15.73;;;17.90;99.90;;;;;;5070546;28;20044;-76
2023/06/08 01:00:11;;;;;;;25.85;14.75;;;17.90;99.90;;;;;;5087548;28;20131;-76
2023/06/08 01:02:38;;;;;;;22.40;15.65;;;17.90;99.90;;;;;;5083575;28;20048;-75
2023/06/08 01:05:07;;;;;;;26.60;16.52;;;17.80;99.90;;;;;;5063970;28;20056;-75
2023/06/08 01:07:48;;;;;;;25.73;16.17;;;17.80;99.90;;;;;;5052631;28;20553;-75
2023/06/08 01:10:27;;;;;;;27.63;16.83;;;17.90;99.90;;;;;;5052569;28;20071;-77
2023/06/08 01:13:06;;;;;;;28.17;17.08;;;17.80;99.90;;;;;;5070935;28;20229;-76
2023/06/08 01:15:39;;;;;;;33.95;16.45;;;17.80;99.90;;;;;;5070436;28;20051;-76
2023/06/08 01:18:09;;;;;;;31.67;16.83;;;17.80;99.90;;;;;;5052126;28;20135;-77
2023/06/08 01:20:47;;;;;;;35.97;27.50;;;17.80;99.90;;;;;;5070735;28;20045;-76
2023/06/08 01:23:26;;;;;;;31.67;20.27;;;17.70;99.90;;;;;;5048848;28;20106;-76
2023/06/08 01:26:00;;;;;;;29.48;20.83;;;17.70;99.90;;;;;;5051226;28;20131;-75
2023/06/08 01:28:30;;;;;;;24.55;17.42;;;17.60;99.90;;;;;;5054134;28;20158;-76
2023/06/08 01:30:58;;;;;;;24.30;16.50;;;17.60;99.90;;;;;;5065578;28;20135;-76
2023/06/08 01:33:29;;;;;;;25.33;17.27;;;17.60;99.90;;;;;;5073268;28;20055;-77
2023/06/08 01:36:05;;;;;;;22.40;16.35;;;17.50;99.90;;;;;;5066755;28;20037;-79
2023/06/08 01:38:40;;;;;;;23.67;17.55;;;17.50;99.90;;;;;;5067901;28;20138;-75
2023/06/08 01:41:12;;;;;;;22.92;17.10;;;17.50;99.90;;;;;;5071261;28;20052;-76
2023/06/08 01:43:42;;;;;;;22.98;17.42;;;17.50;99.90;;;;;;5062717;28;20744;-77
2023/06/08 01:46:13;;;;;;;22.75;16.98;;;17.50;99.90;;;;;;5076335;28;20048;-77
2023/06/08 01:48:42;;;;;;;25.83;17.58;;;17.50;99.90;;;;;;5055676;28;20123;-75
2023/06/08 01:51:12;;;;;;;23.02;17.88;;;17.60;99.90;;;;;;5072966;28;20047;-74
2023/06/08 01:53:39;;;;;;;21.23;16.98;;;17.60;99.90;;;;;;5051682;28;20136;-78
2023/06/08 01:56:08;;;;;;;26.67;18.52;;;17.60;99.90;;;;;;5052490;28;20874;-76
2023/06/08 01:58:36;;;;;;;22.38;17.17;;;17.60;99.90;;;;;;5067598;28;20442;-76
2023/06/08 02:01:03;;;;;;;20.98;17.17;;;17.60;99.90;;;;;;5064200;28;20033;-76
2023/06/08 02:03:30;;;;;;;21.45;16.30;;;17.60;99.90;;;;;;5054778;28;20045;-75
2023/06/08 02:05:58;;;;;;;21.60;17.38;;;17.60;99.90;;;;;;5054239;28;20064;-78
2023/06/08 02:08:25;;;;;;;20.98;16.40;;;17.60;99.90;;;;;;5075072;28;20052;-75
2023/06/08 02:10:53;;;;;;;19.95;16.17;;;17.60;99.90;;;;;;5079302;28;20048;-76
2023/06/08 02:13:22;;;;;;;21.85;17.38;;;17.60;99.90;;;;;;5092900;28;20052;-77
2023/06/08 02:15:51;;;;;;;22.58;17.02;;;17.60;99.90;;;;;;5074669;28;20040;-76
2023/06/08 02:18:19;;;;;;;22.55;18.30;;;17.50;99.90;;;;;;5091935;28;20112;-75
2023/06/08 02:20:48;;;;;;;20.63;17.08;;;17.50;99.90;;;;;;5087600;28;20075;-75
2023/06/08 02:23:15;;;;;;;22.77;16.98;;;17.30;99.90;;;;;;5089906;28;20104;-76
2023/06/08 02:25:42;;;;;;;21.63;17.30;;;17.30;99.90;;;;;;5071566;28;20056;-75
2023/06/08 02:28:10;;;;;;;23.38;18.10;;;17.30;99.90;;;;;;5070499;28;20068;-75
2023/06/08 02:30:39;;;;;;;28.38;19.13;;;17.30;99.90;;;;;;5067360;28;20048;-78
2023/06/08 02:33:06;;;;;;;29.15;18.73;;;17.40;99.90;;;;;;5065822;28;20050;-77
2023/06/08 02:35:33;;;;;;;23.50;19.15;;;17.30;99.90;;;;;;5069316;28;20102;-75
2023/06/08 02:38:01;;;;;;;20.38;17.67;;;17.30;99.90;;;;;;5050235;28;20048;-77
2023/06/08 02:40:28;;;;;;;18.95;16.95;;;17.40;99.90;;;;;;5068006;28;20527;-76
2023/06/08 02:42:56;;;;;;;20.30;18.20;;;17.40;99.90;;;;;;5071009;28;20040;-75
2023/06/08 02:45:25;;;;;;;19.85;17.83;;;17.40;99.90;;;;;;5052826;28;20037;-76
2023/06/08 02:47:55;;;;;;;22.92;17.58;;;17.40;99.90;;;;;;5051247;28;20123;-80
2023/06/08 02:50:23;;;;;;;19.63;17.17;;;17.30;99.90;;;;;;5053441;28;20561;-75
2023/06/08 02:52:50;;;;;;;26.35;16.92;;;17.30;99.90;;;;;;5054619;28;20126;-76
2023/06/08 02:55:17;;;;;;;19.73;17.65;;;17.20;99.90;;;;;;5051909;28;20039;-74
2023/06/08 02:57:49;;;;;;;21.02;17.10;;;17.10;99.90;;;;;;5047562;28;20228;-77
2023/06/08 03:00:20;;;;;;;18.98;16.90;;;17.20;99.90;;;;;;5062139;28;20049;-76
2023/06/08 03:03:06;;;;;;;40.72;17.48;;;17.20;99.90;;;;;;5049897;28;20048;-77
2023/06/08 03:05:39;;;;;;;36.05;17.60;;;17.10;99.90;;;;;;5066997;28;20040;-78
2023/06/08 03:08:08;;;;;;;22.08;17.35;;;17.10;99.90;;;;;;5068623;28;20052;-78
2023/06/08 03:10:36;;;;;;;23.05;18.85;;;17.10;99.90;;;;;;5049861;28;20076;-74
2023/06/08 03:13:05;;;;;;;31.75;19.52;;;17.10;99.90;;;;;;5067206;28;20094;-76
2023/06/08 03:15:33;;;;;;;24.77;18.98;;;17.00;99.90;;;;;;5049262;28;20032;-74
2023/06/08 03:18:03;;;;;;;46.08;19.63;;;17.00;99.90;;;;;;5065915;28;20143;-76
2023/06/08 03:20:33;;;;;;;22.30;19.73;;;17.00;99.90;;;;;;5049688;28;20346;-78
2023/06/08 03:23:09;;;;;;;22.27;18.23;;;17.00;99.90;;;;;;5049244;28;20220;-78
2023/06/08 03:25:38;;;;;;;23.95;18.80;;;17.00;99.90;;;;;;5049298;28;20487;-76
2023/06/08 03:28:06;;;;;;;22.05;18.40;;;17.10;99.90;;;;;;5049665;28;20398;-78
2023/06/08 03:30:34;;;;;;;32.63;18.15;;;17.10;99.90;;;;;;5050136;28;20045;-77
2023/06/08 03:33:05;;;;;;;25.95;17.23;;;17.10;99.90;;;;;;5049489;28;20036;-76
2023/06/08 03:35:44;;;;;;;24.88;17.38;;;17.00;99.90;;;;;;5063314;28;20044;-77
2023/06/08 03:38:21;;;;;;;21.08;18.88;;;16.90;99.90;;;;;;5050598;28;20029;-78
2023/06/08 03:40:50;;;;;;;20.20;17.30;;;16.90;99.90;;;;;;5051623;28;20161;-75
2023/06/08 03:43:18;;;;;;;21.35;16.98;;;16.90;99.90;;;;;;5042370;28;20048;-75
2023/06/08 03:45:48;;;;;;;20.13;17.30;;;16.90;99.90;;;;;;5057726;28;20041;-75
2023/06/08 03:48:16;;;;;;;19.30;17.05;;;16.90;99.90;;;;;;5039358;28;20114;-76
2023/06/08 03:50:45;;;;;;;18.52;16.63;;;16.90;99.90;;;;;;5038440;28;20551;-76
2023/06/08 03:53:13;;;;;;;20.58;15.80;;;16.90;99.90;;;;;;5039360;28;20040;-75
2023/06/08 03:55:41;;;;;;;20.08;16.42;;;16.90;99.90;;;;;;5058056;28;20037;-76
2023/06/08 03:58:12;;;;;;;16.85;15.13;;;16.90;99.90;;;;;;5056512;28;20040;-76
2023/06/08 04:00:41;;;;;;;16.52;14.40;;;16.90;99.90;;;;;;5055004;28;20033;-75
2023/06/08 04:03:10;;;;;;;16.30;13.98;;;17.00;99.90;;;;;;5043833;28;20044;-77
2023/06/08 04:05:38;;;;;;;18.67;13.73;;;17.10;99.90;;;;;;5040131;28;20045;-76
2023/06/08 04:08:08;;;;;;;13.60;12.15;;;17.20;99.90;;;;;;5039459;28;20052;-77
2023/06/08 04:10:35;;;;;;;17.38;12.48;;;17.20;99.90;;;;;;5036388;28;21962;-76
2023/06/08 04:13:03;;;;;;;17.95;12.45;;;17.40;99.90;;;;;;5037200;28;20425;-78
2023/06/08 04:15:31;;;;;;;20.17;13.95;;;17.50;99.90;;;;;;5038639;28;20059;-77
2023/06/08 04:17:58;;;;;;;21.83;13.48;;;17.60;99.90;;;;;;5036660;28;20037;-76
2023/06/08 04:20:27;;;;;;;21.60;13.43;;;17.70;99.90;;;;;;5035560;28;20056;-76
2023/06/08 04:22:57;;;;;;;23.55;14.88;;;17.80;99.90;;;;;;5036720;28;20493;-76
2023/06/08 04:25:26;;;;;;;19.17;13.15;;;17.90;99.90;;;;;;5037750;28;20041;-74
2023/06/08 04:27:56;;;;;;;28.25;13.65;;;18.00;99.90;;;;;;5021296;28;20526;-76
2023/06/08 04:30:23;;;;;;;20.65;12.73;;;18.10;99.90;;;;;;5040578;28;20159;-76
2023/06/08 04:32:51;;;;;;;28.85;13.50;;;18.10;99.90;;;;;;5058871;28;20096;-78
2023/06/08 04:35:19;;;;;;;30.23;14.15;;;18.20;99.90;;;;;;5058613;28;20044;-76
2023/06/08 04:37:47;;;;;;;28.13;14.23;;;18.20;99.90;;;;;;5039424;28;20041;-77
2023/06/08 04:40:16;;;;;;;36.35;16.33;;;18.30;99.90;;;;;;5040880;28;20125;-76
2023/06/08 04:42:46;;;;;;;33.50;15.88;;;18.30;99.90;;;;;;5044374;28;20333;-75
2023/06/08 04:45:13;;;;;;;39.88;17.05;;;18.40;99.90;;;;;;5045544;28;20048;-75
2023/06/08 04:47:45;;;;;;;46.28;20.30;;;18.60;99.90;;;;;;5042356;28;20068;-76
2023/06/08 04:50:13;;;;;;;47.60;20.85;;;18.70;99.90;;;;;;5040404;28;20052;-77
2023/06/08 04:52:41;;;;;;;44.67;18.88;;;18.80;99.90;;;;;;5039824;28;20084;-75
2023/06/08 04:55:12;;;;;;;51.28;21.05;;;18.90;99.90;;;;;;5064972;28;20033;-77
2023/06/08 04:57:41;;;;;;;45.83;22.20;;;19.00;99.90;;;;;;5056830;28;20051;-75
2023/06/08 05:00:12;;;;;;;47.50;24.13;;;18.90;99.90;;;;;;5041196;28;20045;-77
2023/06/08 05:02:40;;;;;;;55.63;24.73;;;19.10;99.90;;;;;;5039265;28;20049;-78
2023/06/08 05:05:08;;;;;;;64.00;29.02;;;19.20;99.90;;;;;;5040756;28;20128;-76
2023/06/08 05:07:35;;;;;;;59.85;28.67;;;19.30;99.90;;;;;;5039117;28;20037;-76
2023/06/08 05:10:03;;;;;;;62.22;31.27;;;19.50;99.90;;;;;;5044802;28;20432;-76
2023/06/08 05:12:30;;;;;;;63.08;33.42;;;19.70;99.90;;;;;;5061089;28;20040;-78
2023/06/08 05:14:59;;;;;;;53.38;26.77;;;19.90;99.90;;;;;;5062761;28;20556;-75
2023/06/08 05:17:28;;;;;;;51.90;27.98;;;20.20;99.90;;;;;;5060516;28;20127;-77
2023/06/08 05:19:55;;;;;;;56.47;28.75;;;20.50;99.90;;;;;;5042819;28;20048;-76
2023/06/08 05:22:23;;;;;;;51.03;28.58;;;20.70;99.90;;;;;;5066467;28;20044;-76
2023/06/08 05:24:50;;;;;;;53.80;29.92;;;20.80;99.90;;;;;;5074568;28;20048;-74
2023/06/08 05:27:18;;;;;;;48.60;26.40;;;20.80;99.90;;;;;;5074276;28;20052;-74
2023/06/08 05:29:45;;;;;;;50.83;27.65;;;20.70;99.90;;;;;;5059862;28;20387;-76
2023/06/08 05:32:12;;;;;;;53.75;27.55;;;20.70;99.90;;;;;;5062391;28;20053;-76
2023/06/08 05:34:41;;;;;;;52.13;27.33;;;20.90;99.90;;;;;;5060169;28;20044;-76
2023/06/08 05:37:08;;;;;;;47.92;27.42;;;21.20;99.90;;;;;;5043190;28;20435;-76
2023/06/08 05:39:36;;;;;;;52.53;27.88;;;21.50;99.90;;;;;;5059337;28;20044;-78
2023/06/08 05:42:04;;;;;;;43.90;25.85;;;21.80;99.90;;;;;;5058540;28;20032;-76
2023/06/08 05:44:31;;;;;;;53.35;29.08;;;22.40;99.90;;;;;;5041015;28;20048;-77
2023/06/08 05:46:58;;;;;;;44.45;27.85;;;22.90;99.90;;;;;;5059908;28;20079;-77
2023/06/08 05:49:26;;;;;;;44.58;25.90;;;23.40;99.90;;;;;;5060113;28;20064;-77
2023/06/08 05:51:55;;;;;;;45.50;28.92;;;23.90;99.90;;;;;;5042207;28;20075;-76
2023/06/08 05:54:22;;;;;;;47.53;28.92;;;24.00;99.90;;;;;;5059094;28;20037;-75
2023/06/08 05:56:50;;;;;;;49.15;29.85;;;23.90;99.90;;;;;;5059280;28;20047;-74
2023/06/08 05:59:17;;;;;;;53.72;29.35;;;23.30;99.90;;;;;;5060177;28;20044;-77
2023/06/08 06:01:45;;;;;;;49.25;30.90;;;22.90;99.90;;;;;;5061276;28;20059;-75
2023/06/08 06:04:12;;;;;;;51.00;33.80;;;22.50;99.90;;;;;;5059910;28;20043;-73
2023/06/08 06:06:40;;;;;;;46.55;30.80;;;22.00;99.90;;;;;;5059128;28;20413;-75
2023/06/08 06:09:11;;;;;;;48.05;32.38;;;21.90;99.90;;;;;;5041953;28;20053;-78
2023/06/08 06:11:38;;;;;;;58.05;35.95;;;21.90;99.90;;;;;;5060169;28;20063;-76
2023/06/08 06:14:06;;;;;;;48.97;32.45;;;22.00;99.90;;;;;;5059517;28;20040;-75
2023/06/08 06:16:33;;;;;;;49.67;32.40;;;22.40;99.90;;;;;;5058992;28;20090;-76
2023/06/08 06:19:01;;;;;;;45.42;31.15;;;22.60;99.90;;;;;;5059557;28;20512;-74
2023/06/08 06:21:28;;;;;;;43.40;30.95;;;22.90;99.90;;;;;;5042451;28;20454;-76
2023/06/08 06:23:55;;;;;;;46.65;31.80;;;22.60;99.90;;;;;;5058946;28;20048;-75
2023/06/08 06:26:25;;;;;;;48.20;31.15;;;22.50;99.90;;;;;;5059399;28;20048;-75
2023/06/08 06:28:52;;;;;;;49.03;31.15;;;22.70;99.90;;;;;;5058439;28;20343;-76
2023/06/08 06:31:20;;;;;;;42.72;29.33;;;22.90;99.90;;;;;;5059538;28;20048;-77
2023/06/08 06:33:47;;;;;;;46.85;30.20;;;23.00;99.90;;;;;;5058209;28;20052;-74
2023/06/08 06:36:15;;;;;;;44.08;30.63;;;23.20;99.90;;;;;;5058752;28;20087;-76
2023/06/08 06:38:42;;;;;;;52.17;36.22;;;23.30;99.90;;;;;;5057327;28;20037;-80
2023/06/08 06:41:09;;;;;;;45.22;31.20;;;23.30;99.90;;;;;;5059474;28;20044;-79
2023/06/08 06:43:38;;;;;;;47.08;32.33;;;23.20;99.90;;;;;;5058993;28;20033;-79
2023/06/08 06:46:08;;;;;;;42.88;32.10;;;23.40;99.90;;;;;;5030899;28;20095;-78
2023/06/08 06:48:35;;;;;;;44.08;32.15;;;23.70;99.90;;;;;;5055832;28;20043;-78
2023/06/08 06:51:02;;;;;;;39.75;29.15;;;23.70;99.90;;;;;;5056129;28;20056;-79
2023/06/08 06:53:30;;;;;;;42.97;31.83;;;23.80;99.90;;;;;;5057936;28;20495;-75
2023/06/08 06:55:57;;;;;;;43.92;32.38;;;24.00;99.90;;;;;;5058023;28;20106;-77
2023/06/08 06:58:26;;;;;;;48.38;35.08;;;24.10;99.90;;;;;;5058105;28;20132;-76
2023/06/08 07:00:55;;;;;;;47.95;36.50;;;24.20;99.90;;;;;;5058314;28;20045;-77
2023/06/08 07:03:26;;;;;;;46.97;34.97;;;24.40;99.90;;;;;;5041349;28;20094;-76
2023/06/08 07:05:58;;;;;;;44.00;33.42;;;24.40;99.90;;;;;;5057701;28;20041;-77
2023/06/08 07:08:25;;;;;;;42.53;35.03;;;24.40;99.90;;;;;;5057698;28;20136;-76
2023/06/08 07:10:53;;;;;;;43.08;33.90;;;24.50;99.90;;;;;;5073174;23;20052;-76
2023/06/08 07:13:20;;;;;;;43.00;33.78;;;24.90;99.90;;;;;;4986652;28;20100;-77
2023/06/08 07:15:48;;;;;;;46.72;36.50;;;25.10;99.90;;;;;;5000906;28;20069;-78
2023/06/08 07:18:17;;;;;;;39.67;33.03;;;25.10;99.90;;;;;;5004547;28;20041;-77
2023/06/08 07:20:45;;;;;;;38.55;31.33;;;24.70;99.90;;;;;;5015624;28;20150;-77
2023/06/08 07:23:12;;;;;;;41.60;30.98;;;24.60;99.90;;;;;;5038413;28;20492;-77
2023/06/08 07:25:40;;;;;;;40.42;32.25;;;24.30;99.90;;;;;;5030847;28;20494;-75
2023/06/08 07:28:09;;;;;;;44.75;36.60;;;24.40;99.90;;;;;;5043112;28;20131;-76
2023/06/08 07:30:37;;;;;;;43.22;35.55;;;24.40;99.90;;;;;;5048057;28;20511;-76
2023/06/08 07:33:06;;;;;;;38.25;34.10;;;24.70;99.90;;;;;;5048107;28;20091;-76
2023/06/08 07:35:34;;;;;;;39.78;31.77;;;25.30;99.90;;;;;;5047882;28;20053;-76
2023/06/08 07:38:02;;;;;;;40.10;31.60;;;25.70;99.90;;;;;;5046964;28;20051;-76
2023/06/08 07:40:30;;;;;;;29.73;25.40;;;25.90;99.90;;;;;;5030149;28;20045;-78
2023/06/08 07:42:57;;;;;;;27.98;21.83;;;25.50;99.90;;;;;;5046852;28;20150;-78
2023/06/08 07:45:25;;;;;;;28.05;23.05;;;25.20;99.90;;;;;;5047346;28;20037;-76
2023/06/08 07:47:52;;;;;;;32.67;24.42;;;25.00;99.90;;;;;;5046790;28;20118;-77
2023/06/08 07:50:20;;;;;;;31.70;25.15;;;25.10;99.90;;;;;;5047013;28;20039;-76
2023/06/08 07:52:49;;;;;;;31.83;25.90;;;25.70;99.90;;;;;;5047753;28;20095;-77
2023/06/08 07:55:17;;;;;;;29.50;24.98;;;25.50;99.90;;;;;;5048681;28;20052;-77
2023/06/08 07:57:44;;;;;;;31.40;26.75;;;25.70;99.90;;;;;;5050581;28;20037;-78
2023/06/08 08:00:13;;;;;;;33.03;26.38;;;25.90;99.90;;;;;;5048029;28;20053;-77
2023/06/08 08:02:40;;;;;;;29.02;25.02;;;26.30;99.90;;;;;;5050760;28;20071;-77
2023/06/08 08:05:09;;;;;;;33.63;24.60;;;26.60;99.90;;;;;;5051852;28;20041;-79
2023/06/08 08:07:36;;;;;;;33.10;26.13;;;26.80;99.90;;;;;;5051820;28;20069;-77
2023/06/08 08:10:06;;;;;;;29.45;23.58;;;27.00;99.90;;;;;;5052055;28;20117;-76
2023/06/08 08:12:33;;;;;;;25.00;21.25;;;26.80;99.90;;;;;;5051030;28;20045;-77
2023/06/08 08:15:01;;;;;;;26.00;22.88;;;26.50;99.90;;;;;;5044876;28;20529;-77
2023/06/08 08:17:28;;;;;;;23.45;19.17;;;26.60;99.90;;;;;;5044727;28;20519;-77
2023/06/08 08:19:56;;;;;;;26.48;20.88;;;26.60;99.90;;;;;;5047192;28;20037;-77
2023/06/08 08:22:24;;;;;;;28.15;22.15;;;26.40;99.90;;;;;;5046707;28;20048;-77
2023/06/08 08:24:51;;;;;;;28.33;22.48;;;26.20;99.90;;;;;;5042320;28;20053;-76
2023/06/08 08:27:20;;;;;;;26.27;21.25;;;26.10;99.90;;;;;;5048413;28;20132;-77
2023/06/08 08:29:48;;;;;;;24.40;20.80;;;26.10;99.90;;;;;;5042629;28;20045;-76
2023/06/08 08:32:16;;;;;;;26.40;23.58;;;26.10;99.90;;;;;;5039655;28;20048;-78
2023/06/08 08:34:44;;;;;;;28.65;22.17;;;26.10;99.90;;;;;;5042120;28;20044;-78
2023/06/08 08:37:11;;;;;;;25.10;21.63;;;26.00;99.90;;;;;;5046682;28;20048;-77
2023/06/08 08:39:38;;;;;;;23.85;21.50;;;26.00;99.90;;;;;;5048409;28;20073;-78
2023/06/08 08:42:10;;;;;;;25.30;22.60;;;25.90;99.90;;;;;;5042198;28;20069;-78
2023/06/08 08:44:39;;;;;;;23.08;20.27;;;25.90;99.90;;;;;;5049932;28;20057;-76
2023/06/08 08:47:10;;;;;;;23.08;19.80;;;26.00;99.90;;;;;;5042502;28;20050;-78
2023/06/08 08:49:42;;;;;;;26.83;21.25;;;26.30;99.90;;;;;;5050773;28;20470;-76
2023/06/08 08:52:10;;;;;;;27.92;20.10;;;26.20;99.90;;;;;;5051095;28;20053;-77
2023/06/08 08:54:38;;;;;;;24.35;20.10;;;26.60;99.90;;;;;;5051087;28;20037;-77
2023/06/08 08:57:09;;;;;;;26.85;21.20;;;26.50;99.90;;;;;;5051053;28;20084;-76
2023/06/08 08:59:40;;;;;;;26.27;22.17;;;26.80;99.90;;;;;;5050120;28;20045;-77
2023/06/08 09:02:09;;;;;;;21.77;18.63;;;27.00;99.90;;;;;;5050830;28;20095;-75
2023/06/08 09:04:37;;;;;;;27.10;21.50;;;27.30;99.90;;;;;;5050550;28;20644;-76
2023/06/08 09:07:04;;;;;;;28.63;21.40;;;27.60;99.90;;;;;;5050833;28;20041;-78
2023/06/08 09:09:32;;;;;;;24.98;20.33;;;27.90;99.90;;;;;;5050156;28;20051;-76
2023/06/08 09:12:00;;;;;;;21.67;19.38;;;28.00;99.90;;;;;;5050775;28;20525;-77
2023/06/08 09:14:28;;;;;;;45.70;36.10;;;28.20;99.90;;;;;;5049176;28;20041;-78
2023/06/08 09:16:59;;;;;;;34.10;27.70;;;28.40;99.90;;;;;;5051896;28;20041;-76
2023/06/08 09:19:26;;;;;;;24.85;20.50;;;27.80;99.90;;;;;;5049847;28;20116;-77
2023/06/08 09:21:55;;;;;;;20.20;18.08;;;27.70;99.90;;;;;;5033219;28;20044;-77
2023/06/08 09:24:22;;;;;;;19.88;17.83;;;27.80;99.90;;;;;;5032374;28;20212;-77
2023/06/08 09:26:52;;;;;;;20.92;17.17;;;27.70;99.90;;;;;;5051420;28;20189;-78
2023/06/08 09:29:39;;;;;;;19.50;17.60;;;27.70;99.90;;;;;;5049221;28;20076;-77
2023/06/08 09:32:12;;;;;;;15.65;11.98;;;27.70;99.90;;;;;;5050241;28;20087;-76
2023/06/08 09:34:53;;;;;;;14.02;11.82;;;27.80;94.90;;;;;;5050091;28;20080;-77
2023/06/08 09:37:26;;;;;;;14.40;13.00;;;27.40;94.60;;;;;;5050203;28;20078;-78
2023/06/08 09:39:55;;;;;;;15.85;14.23;;;27.00;96.10;;;;;;5049931;28;20075;-77
2023/06/08 09:42:23;;;;;;;13.23;11.70;;;26.90;96.70;;;;;;5049805;28;20060;-76
2023/06/08 09:45:08;;;;;;;15.60;12.98;;;26.90;95.40;;;;;;5050881;28;20351;-77
2023/06/08 09:47:37;;;;;;;15.70;14.02;;;26.70;97.00;;;;;;5031103;28;20390;-77
2023/06/08 09:50:08;;;;;;;13.02;11.75;;;26.70;98.00;;;;;;5051915;28;20068;-77
2023/06/08 09:52:37;;;;;;;11.68;10.55;;;26.60;96.90;;;;;;5051267;28;20436;-77
2023/06/08 09:55:06;;;;;;;12.98;11.68;;;26.60;96.20;;;;;;5050426;28;20073;-78
2023/06/08 09:57:36;;;;;;;16.95;12.73;;;26.50;96.60;;;;;;5049554;28;20064;-78
2023/06/08 10:00:14;;;;;;;13.75;11.07;;;26.60;96.60;;;;;;5049960;28;20056;-79
2023/06/08 10:02:54;;;;;;;15.25;13.65;;;26.60;96.70;;;;;;5050241;28;20132;-77
2023/06/08 10:05:24;;;;;;;17.05;13.88;;;26.80;96.30;;;;;;5033870;28;20049;-78
2023/06/08 10:07:55;;;;;;;15.48;13.80;;;26.90;98.50;;;;;;5050427;28;20040;-79
2023/06/08 10:10:25;;;;;;;15.30;13.70;;;26.90;99.90;;;;;;5050340;28;20041;-79
2023/06/08 10:12:53;;;;;;;14.80;13.18;;;26.90;99.90;;;;;;5048798;28;20064;-77
2023/06/08 10:15:22;;;;;;;12.48;11.02;;;27.20;98.80;;;;;;5048835;28;20041;-78
2023/06/08 10:17:51;;;;;;;13.95;12.55;;;27.40;96.20;;;;;;5048953;28;20052;-78
2023/06/08 10:20:19;;;;;;;14.98;13.30;;;27.60;94.30;;;;;;5049176;28;20124;-78
2023/06/08 10:22:47;;;;;;;15.07;11.93;;;27.80;93.30;;;;;;5049655;28;20079;-76
2023/06/08 10:25:16;;;;;;;13.35;12.15;;;28.10;93.90;;;;;;5049297;28;20048;-77
2023/06/08 10:27:51;;;;;;;13.90;12.55;;;28.40;93.60;;;;;;5048789;28;20064;-76
2023/06/08 10:30:30;;;;;;;14.38;12.73;;;28.60;92.40;;;;;;5047404;28;20426;-75
2023/06/08 10:33:09;;;;;;;13.43;11.60;;;28.80;91.50;;;;;;5046132;28;20061;-78
2023/06/08 10:35:37;;;;;;;12.10;10.90;;;28.70;91.90;;;;;;5045655;28;20052;-77
2023/06/08 10:38:10;;;;;;;13.63;12.32;;;28.50;91.30;;;;;;5044712;28;20492;-78
2023/06/08 10:40:44;;;;;;;13.02;11.68;;;28.60;90.90;;;;;;5048881;28;20036;-78
2023/06/08 10:43:12;;;;;;;15.35;11.13;;;28.60;90.40;;;;;;5047758;28;20068;-77
2023/06/08 10:45:41;;;;;;;10.40;9.50;;;28.50;87.40;;;;;;5030381;28;20042;-76
2023/06/08 10:48:15;;;;;;;13.68;12.38;;;28.30;83.20;;;;;;5026901;28;20090;-77
2023/06/08 10:50:44;;;;;;;13.52;12.18;;;28.10;86.10;;;;;;5036452;28;20104;-78
2023/06/08 10:53:11;;;;;;;14.35;12.95;;;27.90;85.50;;;;;;5044713;28;20053;-77
2023/06/08 10:55:39;;;;;;;15.55;13.68;;;27.90;88.20;;;;;;5036493;28;20095;-77
2023/06/08 10:58:15;;;;;;;28.70;25.80;;;27.90;89.60;;;;;;5035472;28;20049;-77
2023/06/08 11:00:43;;;;;;;16.13;14.63;;;27.80;89.80;;;;;;5034264;28;20132;-76
2023/06/08 11:03:18;;;;;;;16.00;14.50;;;27.80;90.40;;;;;;5036722;28;20493;-76
2023/06/08 11:05:50;;;;;;;14.20;12.98;;;27.90;91.30;;;;;;5034125;28;20045;-78
2023/06/08 11:08:17;;;;;;;12.85;11.68;;;28.00;91.00;;;;;;5032882;28;20137;-77
2023/06/08 11:10:51;;;;;;;15.40;12.25;;;28.40;85.10;;;;;;5029725;28;20047;-78
2023/06/08 11:13:19;;;;;;;15.95;14.40;;;28.60;86.10;;;;;;5029421;28;20136;-78
2023/06/08 11:15:47;;;;;;;12.45;11.27;;;28.80;88.10;;;;;;5013797;28;20042;-78
2023/06/08 11:18:19;;;;;;;12.07;11.02;;;28.80;84.60;;;;;;5008895;28;20049;-77
2023/06/08 11:20:47;;;;;;;12.63;11.43;;;28.50;83.30;;;;;;4999175;28;20410;-78
2023/06/08 11:23:15;;;;;;;33.20;24.08;;;28.30;84.80;;;;;;5019784;28;20037;-77
2023/06/08 11:25:46;;;;;;;13.63;12.38;;;28.10;88.10;;;;;;5026942;28;20065;-77
2023/06/08 11:28:13;;;;;;;14.82;13.40;;;28.30;89.40;;;;;;5019635;28;20498;-79
2023/06/08 11:30:41;;;;;;;14.90;13.60;;;28.20;89.50;;;;;;5017423;28;20045;-76
2023/06/08 11:33:14;;;;;;;13.95;12.55;;;28.40;90.30;;;;;;5017311;28;20049;-76
2023/06/08 11:35:43;;;;;;;15.88;14.38;;;28.50;89.20;;;;;;5014936;28;20532;-77
2023/06/08 11:38:10;;;;;;;14.43;13.02;;;28.40;89.50;;;;;;5011523;28;20049;-78
2023/06/08 11:40:41;;;;;;;13.23;11.95;;;28.40;87.00;;;;;;5008324;28;20038;-76
2023/06/08 11:43:11;;;;;;;15.10;13.25;;;28.20;85.00;;;;;;5017639;28;20053;-76
2023/06/08 11:45:40;;;;;;;15.05;13.50;;;28.10;84.90;;;;;;5026376;28;20069;-77
2023/06/08 11:48:08;;;;;;;14.98;13.60;;;28.00;87.20;;;;;;5029019;28;20038;-78
2023/06/08 11:50:36;;;;;;;15.73;14.23;;;27.80;88.40;;;;;;5013167;28;20045;-78
2023/06/08 11:53:05;;;;;;;14.85;13.35;;;27.90;90.00;;;;;;5025808;28;20065;-76
2023/06/08 11:55:35;;;;;;;15.63;14.02;;;28.00;88.80;;;;;;5025484;28;20402;-78
2023/06/08 11:58:07;;;;;;;15.80;14.30;;;27.90;88.20;;;;;;5026148;28;20092;-77
2023/06/08 12:00:35;;;;;;;18.70;16.98;;;27.80;89.20;;;;;;5026419;28;20061;-77
2023/06/08 12:03:03;;;;;;;14.07;12.63;;;27.70;88.70;;;;;;5016632;28;20065;-76
2023/06/08 12:05:32;;;;;;;15.18;13.80;;;27.50;86.70;;;;;;5025873;28;20041;-77
2023/06/08 12:08:01;;;;;;;15.75;14.23;;;27.40;88.20;;;;;;5023741;28;20046;-77
2023/06/08 12:10:35;;;;;;;14.00;12.73;;;27.70;88.80;;;;;;5024382;28;20037;-77
2023/06/08 12:13:06;;;;;;;14.25;12.82;;;27.80;88.40;;;;;;5052550;28;20060;-77
2023/06/08 12:15:36;;;;;;;14.98;13.57;;;27.90;88.30;;;;;;5055145;28;20045;-77
2023/06/08 12:18:04;;;;;;;14.38;12.98;;;28.10;87.50;;;;;;5052334;28;20044;-78
2023/06/08 12:20:33;;;;;;;15.50;14.07;;;28.20;87.90;;;;;;5053372;28;20041;-76
2023/06/08 12:23:01;;;;;;;15.07;13.57;;;28.50;88.00;;;;;;5054418;28;20045;-76
2023/06/08 12:25:29;;;;;;;15.55;14.15;;;28.80;85.80;;;;;;5058305;28;20037;-77
2023/06/08 12:27:58;;;;;;;15.60;14.25;;;29.00;85.80;;;;;;5058099;28;20120;-76
2023/06/08 12:30:25;;;;;;;16.92;15.43;;;29.10;85.40;;;;;;5066067;28;20951;-74
2023/06/08 12:32:53;;;;;;;15.57;14.07;;;29.00;85.50;;;;;;5061060;28;20048;-76
2023/06/08 12:35:22;;;;;;;15.93;14.35;;;29.10;86.60;;;;;;5060497;28;20045;-77
2023/06/08 12:37:50;;;;;;;14.60;13.30;;;29.40;86.10;;;;;;5061837;28;20037;-76